sensor_id;sensor_type;location;lat;lon;timestamp;P1;durP1;ratioP1;P2;durP2;ratioP2
55647;SDS011;45266;48.756;9.246;2023-06-22T00:00:07;8.40;;;7.47;;
55647;SDS011;45266;48.756;9.246;2023-06-22T00:01:13;9.88;;;8.13;;
55647;SDS011;45266;48.756;9.246;2023-06-22T00:02:15;8.02;;;7.22;;
55647;SDS011;45266;48.756;9.246;2023-06-22T00:03:18;9.63;;;7.93;;
55647;SDS011;45266;48.756;9.246;2023-06-22T00:04:21;8.85;;;7.95;;
55647;SDS011;45266;48.756;9.246;2023-06-22T00:05:23;8.70;;;7.78;;
55647;SDS011;45266;48.756;9.246;2023-06-22T00:06:24;11.13;;;7.85;;
55647;SDS011;45266;48.756;9.246;2023-06-22T00:07:26;9.00;;;7.20;;
55647;SDS011;45266;48.756;9.246;2023-06-22T00:08:28;8.70;;;7.80;;
55647;SDS011;45266;48.756;9.246;2023-06-22T00:09:30;8.38;;;7.38;;
55647;SDS011;45266;48.756;9.246;2023-06-22T00:10:32;8.52;;;7.70;;
55647;SDS011;45266;48.756;9.246;2023-06-22T00:11:34;8.55;;;7.65;;
55647;SDS011;45266;48.756;9.246;2023-06-22T00:12:36;8.40;;;7.45;;
55647;SDS011;45266;48.756;9.246;2023-06-22T00:13:38;13.35;;;8.25;;
55647;SDS011;45266;48.756;9.246;2023-06-22T00:14:40;10.05;;;8.07;;
55647;SDS011;45266;48.756;9.246;2023-06-22T00:15:42;9.10;;;8.20;;
55647;SDS011;45266;48.756;9.246;2023-06-22T00:16:44;8.68;;;7.78;;
55647;SDS011;45266;48.756;9.246;2023-06-22T00:17:49;9.23;;;7.70;;
55647;SDS011;45266;48.756;9.246;2023-06-22T00:18:52;9.55;;;8.10;;
55647;SDS011;45266;48.756;9.246;2023-06-22T00:19:54;8.27;;;7.40;;
55647;SDS011;45266;48.756;9.246;2023-06-22T00:20:56;8.60;;;7.60;;
55647;SDS011;45266;48.756;9.246;2023-06-22T00:21:59;9.32;;;8.02;;
55647;SDS011;45266;48.756;9.246;2023-06-22T00:23:01;9.60;;;7.95;;
55647;SDS011;45266;48.756;9.246;2023-06-22T00:24:09;10.23;;;7.70;;
55647;SDS011;45266;48.756;9.246;2023-06-22T00:25:11;8.50;;;7.68;;
55647;SDS011;45266;48.756;9.246;2023-06-22T00:26:13;8.82;;;7.93;;
55647;SDS011;45266;48.756;9.246;2023-06-22T00:27:15;8.90;;;7.95;;
55647;SDS011;45266;48.756;9.246;2023-06-22T00:28:17;9.18;;;7.70;;
55647;SDS011;45266;48.756;9.246;2023-06-22T00:29:19;9.63;;;7.68;;
55647;SDS011;45266;48.756;9.246;2023-06-22T00:30:23;10.43;;;7.90;;
55647;SDS011;45266;48.756;9.246;2023-06-22T00:31:25;8.18;;;7.38;;
55647;SDS011;45266;48.756;9.246;2023-06-22T00:32:27;8.80;;;7.95;;
55647;SDS011;45266;48.756;9.246;2023-06-22T00:33:29;9.40;;;7.55;;
55647;SDS011;45266;48.756;9.246;2023-06-22T00:34:31;9.07;;;8.10;;
55647;SDS011;45266;48.756;9.246;2023-06-22T00:35:33;9.23;;;8.15;;
55647;SDS011;45266;48.756;9.246;2023-06-22T00:36:35;8.50;;;7.63;;
55647;SDS011;45266;48.756;9.246;2023-06-22T00:37:37;12.15;;;7.35;;
55647;SDS011;45266;48.756;9.246;2023-06-22T00:38:43;10.27;;;7.63;;
55647;SDS011;45266;48.756;9.246;2023-06-22T00:39:44;9.57;;;8.20;;
55647;SDS011;45266;48.756;9.246;2023-06-22T00:40:46;8.10;;;7.18;;
55647;SDS011;45266;48.756;9.246;2023-06-22T00:41:48;9.73;;;7.88;;
55647;SDS011;45266;48.756;9.246;2023-06-22T00:42:50;8.73;;;7.68;;
55647;SDS011;45266;48.756;9.246;2023-06-22T00:43:52;10.68;;;8.10;;
55647;SDS011;45266;48.756;9.246;2023-06-22T00:44:54;8.63;;;7.72;;
55647;SDS011;45266;48.756;9.246;2023-06-22T00:45:55;12.90;;;8.15;;
55647;SDS011;45266;48.756;9.246;2023-06-22T00:46:58;8.98;;;7.32;;
55647;SDS011;45266;48.756;9.246;2023-06-22T00:48:01;8.75;;;7.57;;
55647;SDS011;45266;48.756;9.246;2023-06-22T00:49:04;10.10;;;7.60;;
55647;SDS011;45266;48.756;9.246;2023-06-22T00:50:06;8.65;;;7.75;;
55647;SDS011;45266;48.756;9.246;2023-06-22T00:51:11;9.30;;;7.88;;
55647;SDS011;45266;48.756;9.246;2023-06-22T00:52:13;8.93;;;7.50;;
55647;SDS011;45266;48.756;9.246;2023-06-22T00:53:15;9.18;;;8.00;;
55647;SDS011;45266;48.756;9.246;2023-06-22T00:54:19;8.65;;;7.72;;
55647;SDS011;45266;48.756;9.246;2023-06-22T00:55:25;9.35;;;7.93;;
55647;SDS011;45266;48.756;9.246;2023-06-22T00:56:28;10.38;;;8.38;;
55647;SDS011;45266;48.756;9.246;2023-06-22T00:57:31;8.80;;;7.90;;
55647;SDS011;45266;48.756;9.246;2023-06-22T00:58:33;8.68;;;7.72;;
55647;SDS011;45266;48.756;9.246;2023-06-22T00:59:36;9.23;;;7.95;;
55647;SDS011;45266;48.756;9.246;2023-06-22T01:00:39;9.27;;;8.18;;
55647;SDS011;45266;48.756;9.246;2023-06-22T01:01:42;8.25;;;7.35;;
55647;SDS011;45266;48.756;9.246;2023-06-22T01:02:44;11.75;;;7.97;;
55647;SDS011;45266;48.756;9.246;2023-06-22T01:03:53;8.85;;;7.78;;
55647;SDS011;45266;48.756;9.246;2023-06-22T01:04:58;8.93;;;7.75;;
55647;SDS011;45266;48.756;9.246;2023-06-22T01:06:02;9.75;;;8.63;;
55647;SDS011;45266;48.756;9.246;2023-06-22T01:07:18;10.80;;;7.85;;
55647;SDS011;45266;48.756;9.246;2023-06-22T01:08:31;11.27;;;8.32;;
55647;SDS011;45266;48.756;9.246;2023-06-22T01:11:08;8.73;;;7.78;;
55647;SDS011;45266;48.756;9.246;2023-06-22T01:12:17;9.48;;;8.05;;
55647;SDS011;45266;48.756;9.246;2023-06-22T01:13:32;11.45;;;8.43;;
55647;SDS011;45266;48.756;9.246;2023-06-22T01:15:02;9.63;;;7.75;;
55647;SDS011;45266;48.756;9.246;2023-06-22T01:16:13;10.32;;;7.85;;
55647;SDS011;45266;48.756;9.246;2023-06-22T01:17:24;10.85;;;7.80;;
55647;SDS011;45266;48.756;9.246;2023-06-22T01:18:30;12.60;;;8.38;;
55647;SDS011;45266;48.756;9.246;2023-06-22T01:19:44;9.07;;;7.13;;
55647;SDS011;45266;48.756;9.246;2023-06-22T01:20:48;9.32;;;7.97;;
55647;SDS011;45266;48.756;9.246;2023-06-22T01:21:51;10.13;;;8.57;;
55647;SDS011;45266;48.756;9.246;2023-06-22T01:23:10;9.95;;;8.35;;
55647;SDS011;45266;48.756;9.246;2023-06-22T01:28:46;10.60;;;7.32;;
55647;SDS011;45266;48.756;9.246;2023-06-22T01:29:55;7.85;;;7.15;;
55647;SDS011;45266;48.756;9.246;2023-06-22T01:31:02;11.40;;;7.75;;
55647;SDS011;45266;48.756;9.246;2023-06-22T01:32:06;10.13;;;7.68;;
55647;SDS011;45266;48.756;9.246;2023-06-22T01:33:10;10.98;;;7.45;;
55647;SDS011;45266;48.756;9.246;2023-06-22T01:34:14;9.48;;;8.13;;
55647;SDS011;45266;48.756;9.246;2023-06-22T01:35:19;8.48;;;7.60;;
55647;SDS011;45266;48.756;9.246;2023-06-22T01:36:22;8.52;;;7.63;;
55647;SDS011;45266;48.756;9.246;2023-06-22T01:37:27;8.57;;;7.68;;
55647;SDS011;45266;48.756;9.246;2023-06-22T01:38:30;9.88;;;7.72;;
55647;SDS011;45266;48.756;9.246;2023-06-22T01:39:32;8.55;;;7.28;;
55647;SDS011;45266;48.756;9.246;2023-06-22T01:40:35;9.95;;;7.90;;
55647;SDS011;45266;48.756;9.246;2023-06-22T01:41:38;8.63;;;7.47;;
55647;SDS011;45266;48.756;9.246;2023-06-22T01:42:43;10.27;;;8.20;;
55647;SDS011;45266;48.756;9.246;2023-06-22T01:43:46;8.48;;;7.57;;
55647;SDS011;45266;48.756;9.246;2023-06-22T01:44:48;8.65;;;7.70;;
55647;SDS011;45266;48.756;9.246;2023-06-22T01:45:51;10.75;;;7.95;;
55647;SDS011;45266;48.756;9.246;2023-06-22T01:46:54;8.85;;;7.90;;
55647;SDS011;45266;48.756;9.246;2023-06-22T01:47:56;9.32;;;7.20;;
55647;SDS011;45266;48.756;9.246;2023-06-22T01:48:58;9.35;;;8.23;;
55647;SDS011;45266;48.756;9.246;2023-06-22T01:50:01;9.18;;;8.05;;
55647;SDS011;45266;48.756;9.246;2023-06-22T01:51:03;10.23;;;7.90;;
55647;SDS011;45266;48.756;9.246;2023-06-22T01:52:05;10.23;;;7.30;;
55647;SDS011;45266;48.756;9.246;2023-06-22T01:53:08;8.40;;;7.45;;
55647;SDS011;45266;48.756;9.246;2023-06-22T01:54:09;8.95;;;7.60;;
55647;SDS011;45266;48.756;9.246;2023-06-22T01:55:11;8.40;;;7.57;;
55647;SDS011;45266;48.756;9.246;2023-06-22T01:56:15;8.38;;;7.60;;
55647;SDS011;45266;48.756;9.246;2023-06-22T01:57:19;9.10;;;7.50;;
55647;SDS011;45266;48.756;9.246;2023-06-22T01:58:22;9.00;;;7.45;;
55647;SDS011;45266;48.756;9.246;2023-06-22T01:59:28;8.18;;;7.38;;
55647;SDS011;45266;48.756;9.246;2023-06-22T02:00:50;10.18;;;7.50;;
55647;SDS011;45266;48.756;9.246;2023-06-22T02:02:01;9.00;;;7.68;;
55647;SDS011;45266;48.756;9.246;2023-06-22T02:04:26;8.07;;;7.10;;
55647;SDS011;45266;48.756;9.246;2023-06-22T02:05:46;8.57;;;6.68;;
55647;SDS011;45266;48.756;9.246;2023-06-22T02:06:53;7.63;;;6.93;;
55647;SDS011;45266;48.756;9.246;2023-06-22T02:08:08;9.48;;;7.78;;
55647;SDS011;45266;48.756;9.246;2023-06-22T02:09:19;11.13;;;7.78;;
55647;SDS011;45266;48.756;9.246;2023-06-22T02:10:24;9.18;;;7.63;;
55647;SDS011;45266;48.756;9.246;2023-06-22T02:11:28;12.90;;;8.15;;
55647;SDS011;45266;48.756;9.246;2023-06-22T02:12:32;10.82;;;7.75;;
55647;SDS011;45266;48.756;9.246;2023-06-22T02:13:36;11.35;;;8.05;;
55647;SDS011;45266;48.756;9.246;2023-06-22T02:14:39;10.13;;;7.80;;
55647;SDS011;45266;48.756;9.246;2023-06-22T02:15:41;9.15;;;8.25;;
55647;SDS011;45266;48.756;9.246;2023-06-22T02:16:44;9.75;;;7.32;;
55647;SDS011;45266;48.756;9.246;2023-06-22T02:17:47;8.30;;;7.50;;
55647;SDS011;45266;48.756;9.246;2023-06-22T02:18:50;11.05;;;7.57;;
55647;SDS011;45266;48.756;9.246;2023-06-22T02:19:52;9.73;;;6.95;;
55647;SDS011;45266;48.756;9.246;2023-06-22T02:20:55;7.80;;;7.10;;
55647;SDS011;45266;48.756;9.246;2023-06-22T02:21:56;9.82;;;7.78;;
55647;SDS011;45266;48.756;9.246;2023-06-22T02:22:58;7.40;;;6.63;;
55647;SDS011;45266;48.756;9.246;2023-06-22T02:24:00;8.35;;;7.30;;
55647;SDS011;45266;48.756;9.246;2023-06-22T02:25:02;8.77;;;7.75;;
55647;SDS011;45266;48.756;9.246;2023-06-22T02:26:04;7.35;;;6.63;;
55647;SDS011;45266;48.756;9.246;2023-06-22T02:27:06;8.07;;;7.38;;
55647;SDS011;45266;48.756;9.246;2023-06-22T02:28:08;10.75;;;7.82;;
55647;SDS011;45266;48.756;9.246;2023-06-22T02:29:10;7.55;;;6.80;;
55647;SDS011;45266;48.756;9.246;2023-06-22T02:30:12;7.82;;;7.03;;
55647;SDS011;45266;48.756;9.246;2023-06-22T02:31:16;8.73;;;7.18;;
55647;SDS011;45266;48.756;9.246;2023-06-22T02:32:18;8.43;;;7.40;;
55647;SDS011;45266;48.756;9.246;2023-06-22T02:33:20;11.00;;;7.85;;
55647;SDS011;45266;48.756;9.246;2023-06-22T02:34:22;8.10;;;6.97;;
55647;SDS011;45266;48.756;9.246;2023-06-22T02:35:27;9.00;;;7.47;;
55647;SDS011;45266;48.756;9.246;2023-06-22T02:36:33;11.30;;;7.00;;
55647;SDS011;45266;48.756;9.246;2023-06-22T02:37:35;9.68;;;6.85;;
55647;SDS011;45266;48.756;9.246;2023-06-22T02:38:43;11.02;;;7.40;;
55647;SDS011;45266;48.756;9.246;2023-06-22T02:39:49;8.63;;;7.10;;
55647;SDS011;45266;48.756;9.246;2023-06-22T02:40:51;7.93;;;7.15;;
55647;SDS011;45266;48.756;9.246;2023-06-22T02:41:53;7.82;;;7.05;;
55647;SDS011;45266;48.756;9.246;2023-06-22T02:42:55;8.38;;;7.50;;
55647;SDS011;45266;48.756;9.246;2023-06-22T02:43:59;8.02;;;7.07;;
55647;SDS011;45266;48.756;9.246;2023-06-22T02:45:01;7.15;;;6.45;;
55647;SDS011;45266;48.756;9.246;2023-06-22T02:46:03;10.75;;;7.43;;
55647;SDS011;45266;48.756;9.246;2023-06-22T02:47:05;7.82;;;6.38;;
55647;SDS011;45266;48.756;9.246;2023-06-22T02:48:07;8.82;;;7.63;;
55647;SDS011;45266;48.756;9.246;2023-06-22T02:49:09;8.23;;;7.38;;
55647;SDS011;45266;48.756;9.246;2023-06-22T02:50:11;9.82;;;7.25;;
55647;SDS011;45266;48.756;9.246;2023-06-22T02:51:14;8.20;;;7.10;;
55647;SDS011;45266;48.756;9.246;2023-06-22T02:52:16;7.97;;;7.18;;
55647;SDS011;45266;48.756;9.246;2023-06-22T02:53:18;7.88;;;6.60;;
55647;SDS011;45266;48.756;9.246;2023-06-22T02:54:20;7.75;;;6.97;;
55647;SDS011;45266;48.756;9.246;2023-06-22T02:55:22;9.05;;;7.68;;
55647;SDS011;45266;48.756;9.246;2023-06-22T02:56:24;7.75;;;7.00;;
55647;SDS011;45266;48.756;9.246;2023-06-22T02:57:26;8.25;;;7.43;;
55647;SDS011;45266;48.756;9.246;2023-06-22T02:58:28;10.70;;;7.90;;
55647;SDS011;45266;48.756;9.246;2023-06-22T02:59:30;7.72;;;6.93;;
55647;SDS011;45266;48.756;9.246;2023-06-22T03:00:34;8.88;;;7.43;;
55647;SDS011;45266;48.756;9.246;2023-06-22T03:01:36;8.32;;;7.35;;
55647;SDS011;45266;48.756;9.246;2023-06-22T03:02:42;10.43;;;7.60;;
55647;SDS011;45266;48.756;9.246;2023-06-22T03:03:45;8.65;;;7.50;;
55647;SDS011;45266;48.756;9.246;2023-06-22T03:04:47;9.05;;;7.78;;
55647;SDS011;45266;48.756;9.246;2023-06-22T03:05:50;8.85;;;6.97;;
55647;SDS011;45266;48.756;9.246;2023-06-22T03:06:54;8.52;;;7.47;;
55647;SDS011;45266;48.756;9.246;2023-06-22T03:07:56;8.77;;;7.80;;
55647;SDS011;45266;48.756;9.246;2023-06-22T03:09:01;8.05;;;7.22;;
55647;SDS011;45266;48.756;9.246;2023-06-22T03:10:05;9.05;;;7.28;;
55647;SDS011;45266;48.756;9.246;2023-06-22T03:11:08;10.27;;;7.68;;
55647;SDS011;45266;48.756;9.246;2023-06-22T03:12:10;9.15;;;7.07;;
55647;SDS011;45266;48.756;9.246;2023-06-22T03:13:12;9.32;;;7.78;;
55647;SDS011;45266;48.756;9.246;2023-06-22T03:14:14;8.77;;;7.68;;
55647;SDS011;45266;48.756;9.246;2023-06-22T03:15:16;10.18;;;7.60;;
55647;SDS011;45266;48.756;9.246;2023-06-22T03:16:18;9.32;;;7.45;;
55647;SDS011;45266;48.756;9.246;2023-06-22T03:17:20;11.40;;;7.88;;
55647;SDS011;45266;48.756;9.246;2023-06-22T03:18:22;8.02;;;7.03;;
55647;SDS011;45266;48.756;9.246;2023-06-22T03:19:24;8.68;;;7.70;;
55647;SDS011;45266;48.756;9.246;2023-06-22T03:20:26;8.75;;;7.70;;
55647;SDS011;45266;48.756;9.246;2023-06-22T03:21:34;8.23;;;7.38;;
55647;SDS011;45266;48.756;9.246;2023-06-22T03:22:36;9.25;;;7.90;;
55647;SDS011;45266;48.756;9.246;2023-06-22T03:23:42;9.27;;;7.75;;
55647;SDS011;45266;48.756;9.246;2023-06-22T03:24:44;7.47;;;6.80;;
55647;SDS011;45266;48.756;9.246;2023-06-22T03:25:46;8.00;;;7.20;;
55647;SDS011;45266;48.756;9.246;2023-06-22T03:26:48;8.50;;;7.50;;
55647;SDS011;45266;48.756;9.246;2023-06-22T03:27:50;9.30;;;7.15;;
55647;SDS011;45266;48.756;9.246;2023-06-22T03:28:52;8.77;;;7.88;;
55647;SDS011;45266;48.756;9.246;2023-06-22T03:29:54;8.90;;;7.90;;
55647;SDS011;45266;48.756;9.246;2023-06-22T03:30:58;9.57;;;8.15;;
55647;SDS011;45266;48.756;9.246;2023-06-22T03:32:00;8.75;;;7.80;;
55647;SDS011;45266;48.756;9.246;2023-06-22T03:33:02;8.80;;;7.90;;
55647;SDS011;45266;48.756;9.246;2023-06-22T03:34:04;8.88;;;7.82;;
55647;SDS011;45266;48.756;9.246;2023-06-22T03:35:06;10.30;;;8.65;;
55647;SDS011;45266;48.756;9.246;2023-06-22T03:36:08;9.13;;;7.88;;
55647;SDS011;45266;48.756;9.246;2023-06-22T03:37:10;9.65;;;7.90;;
55647;SDS011;45266;48.756;9.246;2023-06-22T03:38:13;9.77;;;7.70;;
55647;SDS011;45266;48.756;9.246;2023-06-22T03:39:15;10.38;;;8.45;;
55647;SDS011;45266;48.756;9.246;2023-06-22T03:40:17;10.13;;;8.37;;
55647;SDS011;45266;48.756;9.246;2023-06-22T03:41:18;9.77;;;8.05;;
55647;SDS011;45266;48.756;9.246;2023-06-22T03:42:20;9.40;;;8.30;;
55647;SDS011;45266;48.756;9.246;2023-06-22T03:43:22;9.93;;;8.43;;
55647;SDS011;45266;48.756;9.246;2023-06-22T03:44:24;11.15;;;8.68;;
55647;SDS011;45266;48.756;9.246;2023-06-22T03:45:26;9.35;;;8.43;;
55647;SDS011;45266;48.756;9.246;2023-06-22T03:46:28;9.43;;;8.43;;
55647;SDS011;45266;48.756;9.246;2023-06-22T03:47:30;8.60;;;7.75;;
55647;SDS011;45266;48.756;9.246;2023-06-22T03:48:33;10.40;;;7.68;;
55647;SDS011;45266;48.756;9.246;2023-06-22T03:49:35;9.55;;;8.43;;
55647;SDS011;45266;48.756;9.246;2023-06-22T03:50:37;10.48;;;8.63;;
55647;SDS011;45266;48.756;9.246;2023-06-22T03:51:39;9.43;;;8.38;;
55647;SDS011;45266;48.756;9.246;2023-06-22T03:52:41;11.07;;;9.07;;
55647;SDS011;45266;48.756;9.246;2023-06-22T03:53:43;9.20;;;7.80;;
55647;SDS011;45266;48.756;9.246;2023-06-22T03:54:44;9.00;;;8.15;;
55647;SDS011;45266;48.756;9.246;2023-06-22T03:55:50;8.90;;;8.00;;
55647;SDS011;45266;48.756;9.246;2023-06-22T03:56:53;8.40;;;7.60;;
55647;SDS011;45266;48.756;9.246;2023-06-22T03:57:55;9.10;;;8.10;;
55647;SDS011;45266;48.756;9.246;2023-06-22T03:58:58;10.90;;;8.68;;
55647;SDS011;45266;48.756;9.246;2023-06-22T04:00:00;10.65;;;8.75;;
55647;SDS011;45266;48.756;9.246;2023-06-22T04:01:06;10.27;;;8.57;;
55647;SDS011;45266;48.756;9.246;2023-06-22T04:02:09;12.07;;;9.18;;
55647;SDS011;45266;48.756;9.246;2023-06-22T04:03:11;9.50;;;8.43;;
55647;SDS011;45266;48.756;9.246;2023-06-22T04:04:13;9.32;;;8.43;;
55647;SDS011;45266;48.756;9.246;2023-06-22T04:05:15;11.35;;;9.00;;
55647;SDS011;45266;48.756;9.246;2023-06-22T04:06:20;12.70;;;8.75;;
55647;SDS011;45266;48.756;9.246;2023-06-22T04:07:23;10.32;;;8.70;;
55647;SDS011;45266;48.756;9.246;2023-06-22T04:08:25;9.40;;;8.50;;
55647;SDS011;45266;48.756;9.246;2023-06-22T04:09:27;10.27;;;8.93;;
55647;SDS011;45266;48.756;9.246;2023-06-22T04:10:29;12.00;;;8.77;;
55647;SDS011;45266;48.756;9.246;2023-06-22T04:11:31;10.52;;;9.13;;
55647;SDS011;45266;48.756;9.246;2023-06-22T04:12:33;13.23;;;9.30;;
55647;SDS011;45266;48.756;9.246;2023-06-22T04:13:35;10.05;;;9.05;;
55647;SDS011;45266;48.756;9.246;2023-06-22T04:14:37;12.40;;;8.35;;
55647;SDS011;45266;48.756;9.246;2023-06-22T04:15:38;11.52;;;8.75;;
55647;SDS011;45266;48.756;9.246;2023-06-22T04:16:40;9.43;;;8.50;;
55647;SDS011;45266;48.756;9.246;2023-06-22T04:17:44;11.05;;;8.38;;
55647;SDS011;45266;48.756;9.246;2023-06-22T04:18:46;9.43;;;8.43;;
55647;SDS011;45266;48.756;9.246;2023-06-22T04:19:48;9.77;;;8.77;;
55647;SDS011;45266;48.756;9.246;2023-06-22T04:20:50;9.40;;;8.35;;
55647;SDS011;45266;48.756;9.246;2023-06-22T04:21:51;13.18;;;8.27;;
55647;SDS011;45266;48.756;9.246;2023-06-22T04:22:53;10.02;;;8.77;;
55647;SDS011;45266;48.756;9.246;2023-06-22T04:23:56;8.60;;;7.72;;
55647;SDS011;45266;48.756;9.246;2023-06-22T04:24:57;8.88;;;8.00;;
55647;SDS011;45266;48.756;9.246;2023-06-22T04:25:59;11.25;;;8.52;;
55647;SDS011;45266;48.756;9.246;2023-06-22T04:27:01;10.65;;;8.57;;
55647;SDS011;45266;48.756;9.246;2023-06-22T04:28:03;10.20;;;8.23;;
55647;SDS011;45266;48.756;9.246;2023-06-22T04:29:05;9.55;;;8.15;;
55647;SDS011;45266;48.756;9.246;2023-06-22T04:30:09;9.85;;;8.73;;
55647;SDS011;45266;48.756;9.246;2023-06-22T04:31:12;8.57;;;7.70;;
55647;SDS011;45266;48.756;9.246;2023-06-22T04:32:17;11.43;;;7.93;;
55647;SDS011;45266;48.756;9.246;2023-06-22T04:33:19;9.48;;;8.43;;
55647;SDS011;45266;48.756;9.246;2023-06-22T04:34:21;8.88;;;8.07;;
55647;SDS011;45266;48.756;9.246;2023-06-22T04:35:26;9.73;;;8.52;;
55647;SDS011;45266;48.756;9.246;2023-06-22T04:36:29;9.55;;;8.60;;
55647;SDS011;45266;48.756;9.246;2023-06-22T04:37:38;10.43;;;8.27;;
55647;SDS011;45266;48.756;9.246;2023-06-22T04:38:40;9.98;;;8.93;;
55647;SDS011;45266;48.756;9.246;2023-06-22T04:39:43;8.98;;;8.05;;
55647;SDS011;45266;48.756;9.246;2023-06-22T04:40:45;10.85;;;8.38;;
55647;SDS011;45266;48.756;9.246;2023-06-22T04:41:47;11.45;;;8.40;;
55647;SDS011;45266;48.756;9.246;2023-06-22T04:42:49;10.88;;;8.50;;
55647;SDS011;45266;48.756;9.246;2023-06-22T04:43:55;11.18;;;8.38;;
55647;SDS011;45266;48.756;9.246;2023-06-22T04:45:01;9.10;;;8.20;;
55647;SDS011;45266;48.756;9.246;2023-06-22T04:46:03;10.02;;;9.02;;
55647;SDS011;45266;48.756;9.246;2023-06-22T04:47:05;10.75;;;9.38;;
55647;SDS011;45266;48.756;9.246;2023-06-22T04:48:09;9.40;;;8.40;;
55647;SDS011;45266;48.756;9.246;2023-06-22T04:49:17;10.65;;;8.57;;
55647;SDS011;45266;48.756;9.246;2023-06-22T04:50:18;11.02;;;8.35;;
55647;SDS011;45266;48.756;9.246;2023-06-22T04:51:22;9.60;;;8.27;;
55647;SDS011;45266;48.756;9.246;2023-06-22T04:52:24;11.10;;;8.55;;
55647;SDS011;45266;48.756;9.246;2023-06-22T04:53:26;11.35;;;8.32;;
55647;SDS011;45266;48.756;9.246;2023-06-22T04:54:31;11.38;;;8.27;;
55647;SDS011;45266;48.756;9.246;2023-06-22T04:55:36;9.90;;;8.60;;
55647;SDS011;45266;48.756;9.246;2023-06-22T04:56:39;10.25;;;9.25;;
55647;SDS011;45266;48.756;9.246;2023-06-22T04:57:42;9.35;;;8.30;;
55647;SDS011;45266;48.756;9.246;2023-06-22T04:58:50;9.23;;;7.93;;
55647;SDS011;45266;48.756;9.246;2023-06-22T04:59:53;9.98;;;8.80;;
55647;SDS011;45266;48.756;9.246;2023-06-22T05:00:55;10.38;;;8.75;;
55647;SDS011;45266;48.756;9.246;2023-06-22T05:01:59;11.38;;;8.55;;
55647;SDS011;45266;48.756;9.246;2023-06-22T05:03:02;11.50;;;8.45;;
55647;SDS011;45266;48.756;9.246;2023-06-22T05:04:19;9.10;;;8.07;;
55647;SDS011;45266;48.756;9.246;2023-06-22T05:05:22;9.20;;;8.30;;
55647;SDS011;45266;48.756;9.246;2023-06-22T05:06:24;10.23;;;8.38;;
55647;SDS011;45266;48.756;9.246;2023-06-22T05:07:26;8.98;;;8.07;;
55647;SDS011;45266;48.756;9.246;2023-06-22T05:08:27;9.85;;;8.05;;
55647;SDS011;45266;48.756;9.246;2023-06-22T05:09:30;8.20;;;7.45;;
55647;SDS011;45266;48.756;9.246;2023-06-22T05:10:32;9.55;;;8.27;;
55647;SDS011;45266;48.756;9.246;2023-06-22T05:11:34;9.63;;;8.50;;
55647;SDS011;45266;48.756;9.246;2023-06-22T05:12:36;9.07;;;8.20;;
55647;SDS011;45266;48.756;9.246;2023-06-22T05:13:38;8.95;;;7.63;;
55647;SDS011;45266;48.756;9.246;2023-06-22T05:14:40;11.27;;;7.57;;
55647;SDS011;45266;48.756;9.246;2023-06-22T05:15:43;8.63;;;7.70;;
55647;SDS011;45266;48.756;9.246;2023-06-22T05:16:45;9.40;;;7.90;;
55647;SDS011;45266;48.756;9.246;2023-06-22T05:17:47;11.73;;;8.20;;
55647;SDS011;45266;48.756;9.246;2023-06-22T05:18:58;9.02;;;7.82;;
55647;SDS011;45266;48.756;9.246;2023-06-22T05:20:01;8.38;;;7.57;;
55647;SDS011;45266;48.756;9.246;2023-06-22T05:21:03;11.88;;;8.55;;
55647;SDS011;45266;48.756;9.246;2023-06-22T05:22:05;8.55;;;7.70;;
55647;SDS011;45266;48.756;9.246;2023-06-22T05:23:07;8.50;;;7.70;;
55647;SDS011;45266;48.756;9.246;2023-06-22T05:24:09;9.25;;;8.10;;
55647;SDS011;45266;48.756;9.246;2023-06-22T05:25:12;12.20;;;8.75;;
55647;SDS011;45266;48.756;9.246;2023-06-22T05:26:32;9.02;;;8.13;;
55647;SDS011;45266;48.756;9.246;2023-06-22T05:27:52;10.10;;;7.57;;
55647;SDS011;45266;48.756;9.246;2023-06-22T05:29:12;10.05;;;8.05;;
55647;SDS011;45266;48.756;9.246;2023-06-22T05:30:31;8.75;;;7.78;;
55647;SDS011;45266;48.756;9.246;2023-06-22T05:31:50;9.70;;;7.60;;
55647;SDS011;45266;48.756;9.246;2023-06-22T05:33:10;9.02;;;8.02;;
55647;SDS011;45266;48.756;9.246;2023-06-22T05:34:12;10.43;;;8.77;;
55647;SDS011;45266;48.756;9.246;2023-06-22T05:35:14;8.73;;;7.93;;
55647;SDS011;45266;48.756;9.246;2023-06-22T05:36:16;11.35;;;8.70;;
55647;SDS011;45266;48.756;9.246;2023-06-22T05:37:18;10.23;;;8.43;;
55647;SDS011;45266;48.756;9.246;2023-06-22T05:38:19;11.50;;;8.35;;
55647;SDS011;45266;48.756;9.246;2023-06-22T05:39:21;12.27;;;8.57;;
55647;SDS011;45266;48.756;9.246;2023-06-22T05:40:23;11.30;;;8.52;;
55647;SDS011;45266;48.756;9.246;2023-06-22T05:41:25;12.95;;;8.35;;
55647;SDS011;45266;48.756;9.246;2023-06-22T05:42:28;16.27;;;8.25;;
55647;SDS011;45266;48.756;9.246;2023-06-22T05:43:30;11.35;;;8.32;;
55647;SDS011;45266;48.756;9.246;2023-06-22T05:44:32;11.73;;;8.23;;
55647;SDS011;45266;48.756;9.246;2023-06-22T05:45:34;12.20;;;8.35;;
55647;SDS011;45266;48.756;9.246;2023-06-22T05:46:36;12.18;;;8.43;;
55647;SDS011;45266;48.756;9.246;2023-06-22T05:47:40;9.95;;;8.20;;
55647;SDS011;45266;48.756;9.246;2023-06-22T05:48:42;12.15;;;8.25;;
55647;SDS011;45266;48.756;9.246;2023-06-22T05:49:44;9.55;;;8.38;;
55647;SDS011;45266;48.756;9.246;2023-06-22T05:50:46;12.15;;;8.38;;
55647;SDS011;45266;48.756;9.246;2023-06-22T05:51:48;10.68;;;8.30;;
55647;SDS011;45266;48.756;9.246;2023-06-22T05:52:50;11.68;;;8.32;;
55647;SDS011;45266;48.756;9.246;2023-06-22T05:53:52;8.30;;;7.50;;
55647;SDS011;45266;48.756;9.246;2023-06-22T05:54:53;11.38;;;7.50;;
55647;SDS011;45266;48.756;9.246;2023-06-22T05:55:56;11.73;;;7.43;;
55647;SDS011;45266;48.756;9.246;2023-06-22T05:56:58;9.30;;;7.40;;
55647;SDS011;45266;48.756;9.246;2023-06-22T05:57:59;11.73;;;8.10;;
55647;SDS011;45266;48.756;9.246;2023-06-22T05:59:01;8.95;;;7.47;;
55647;SDS011;45266;48.756;9.246;2023-06-22T06:00:03;9.50;;;7.95;;
55647;SDS011;45266;48.756;9.246;2023-06-22T06:01:09;9.88;;;7.40;;
55647;SDS011;45266;48.756;9.246;2023-06-22T06:02:11;12.73;;;8.25;;
55647;SDS011;45266;48.756;9.246;2023-06-22T06:03:13;10.20;;;7.25;;
55647;SDS011;45266;48.756;9.246;2023-06-22T06:04:18;8.93;;;6.97;;
55647;SDS011;45266;48.756;9.246;2023-06-22T06:05:20;9.15;;;6.78;;
55647;SDS011;45266;48.756;9.246;2023-06-22T06:06:24;9.95;;;7.70;;
55647;SDS011;45266;48.756;9.246;2023-06-22T06:07:29;8.60;;;6.88;;
55647;SDS011;45266;48.756;9.246;2023-06-22T06:08:31;12.35;;;7.13;;
55647;SDS011;45266;48.756;9.246;2023-06-22T06:09:33;9.35;;;7.35;;
55647;SDS011;45266;48.756;9.246;2023-06-22T06:10:35;9.10;;;6.75;;
55647;SDS011;45266;48.756;9.246;2023-06-22T06:11:37;10.95;;;6.95;;
55647;SDS011;45266;48.756;9.246;2023-06-22T06:12:39;10.60;;;7.32;;
55647;SDS011;45266;48.756;9.246;2023-06-22T06:13:41;9.93;;;6.88;;
55647;SDS011;45266;48.756;9.246;2023-06-22T06:14:43;7.90;;;6.60;;
55647;SDS011;45266;48.756;9.246;2023-06-22T06:15:44;8.93;;;6.38;;
55647;SDS011;45266;48.756;9.246;2023-06-22T06:16:48;11.90;;;6.65;;
55647;SDS011;45266;48.756;9.246;2023-06-22T06:17:51;8.20;;;6.03;;
55647;SDS011;45266;48.756;9.246;2023-06-22T06:18:53;9.50;;;6.18;;
55647;SDS011;45266;48.756;9.246;2023-06-22T06:19:59;8.43;;;6.22;;
55647;SDS011;45266;48.756;9.246;2023-06-22T06:21:02;8.45;;;5.80;;
55647;SDS011;45266;48.756;9.246;2023-06-22T06:22:03;10.07;;;6.47;;
55647;SDS011;45266;48.756;9.246;2023-06-22T06:23:05;7.60;;;6.25;;
55647;SDS011;45266;48.756;9.246;2023-06-22T06:24:07;9.82;;;6.10;;
55647;SDS011;45266;48.756;9.246;2023-06-22T06:25:09;7.65;;;6.55;;
55647;SDS011;45266;48.756;9.246;2023-06-22T06:26:11;8.82;;;6.53;;
55647;SDS011;45266;48.756;9.246;2023-06-22T06:27:13;8.82;;;6.55;;
55647;SDS011;45266;48.756;9.246;2023-06-22T06:28:15;6.78;;;5.95;;